sensor_id;sensor_type;location;lat;lon;timestamp;pressure;altitude;pressure_sealevel;temperature;humidity
20111;BME280;10216;42.658;23.248;2022-09-09T00:01:23;93972.56;;;16.79;89.85
20111;BME280;10216;42.658;23.248;2022-09-09T00:03:59;93974.16;;;16.80;89.48
20111;BME280;10216;42.658;23.248;2022-09-09T00:06:31;93975.97;;;16.79;89.84
20111;BME280;10216;42.658;23.248;2022-09-09T00:09:03;93964.19;;;16.77;89.75
20111;BME280;10216;42.658;23.248;2022-09-09T00:11:41;93965.38;;;16.74;89.04
20111;BME280;10216;42.658;23.248;2022-09-09T00:14:55;93967.38;;;16.72;88.95
20111;BME280;10216;42.658;23.248;2022-09-09T00:20:12;93950.78;;;16.60;89.23
20111;BME280;10216;42.658;23.248;2022-09-09T00:22:44;93950.59;;;16.62;89.43
20111;BME280;10216;42.658;23.248;2022-09-09T00:25:24;93951.41;;;16.62;89.50
20111;BME280;10216;42.658;23.248;2022-09-09T00:27:52;93942.81;;;16.62;90.10
20111;BME280;10216;42.658;23.248;2022-09-09T00:30:22;93932.63;;;16.60;90.03
20111;BME280;10216;42.658;23.248;2022-09-09T00:32:52;93935.00;;;16.55;89.29
20111;BME280;10216;42.658;23.248;2022-09-09T00:35:25;93925.41;;;16.49;89.87
20111;BME280;10216;42.658;23.248;2022-09-09T00:37:56;93929.00;;;16.48;89.88
20111;BME280;10216;42.658;23.248;2022-09-09T00:42:53;93921.59;;;16.45;89.82
20111;BME280;10216;42.658;23.248;2022-09-09T00:48:10;93928.94;;;16.35;90.34
20111;BME280;10216;42.658;23.248;2022-09-09T00:50:43;93929.13;;;16.33;90.26
20111;BME280;10216;42.658;23.248;2022-09-09T00:58:13;93938.84;;;16.25;90.91
20111;BME280;10216;42.658;23.248;2022-09-09T01:00:45;93937.25;;;16.24;90.96
20111;BME280;10216;42.658;23.248;2022-09-09T01:11:22;93928.88;;;16.22;90.27
20111;BME280;10216;42.658;23.248;2022-09-09T01:13:53;93930.25;;;16.18;90.10
20111;BME280;10216;42.658;23.248;2022-09-09T01:16:24;93930.06;;;16.19;90.56
20111;BME280;10216;42.658;23.248;2022-09-09T01:18:52;93934.00;;;16.15;90.90
20111;BME280;10216;42.658;23.248;2022-09-09T01:26:48;93925.59;;;16.07;91.50
20111;BME280;10216;42.658;23.248;2022-09-09T01:29:16;93929.38;;;16.04;92.03
20111;BME280;10216;42.658;23.248;2022-09-09T01:32:35;93924.41;;;16.02;91.78
20111;BME280;10216;42.658;23.248;2022-09-09T01:34:47;93926.00;;;16.04;91.93
20111;BME280;10216;42.658;23.248;2022-09-09T01:37:13;93934.56;;;16.04;91.92
20111;BME280;10216;42.658;23.248;2022-09-09T01:39:40;93934.38;;;16.06;92.22
20111;BME280;10216;42.658;23.248;2022-09-09T01:42:09;93937.56;;;16.08;92.92
20111;BME280;10216;42.658;23.248;2022-09-09T01:44:36;93950.28;;;16.02;93.24
20111;BME280;10216;42.658;23.248;2022-09-09T01:47:02;93955.06;;;15.99;92.83
20111;BME280;10216;42.658;23.248;2022-09-09T01:49:28;93946.69;;;15.97;92.77
20111;BME280;10216;42.658;23.248;2022-09-09T01:51:55;93943.47;;;15.95;92.66
20111;BME280;10216;42.658;23.248;2022-09-09T01:54:23;93959.44;;;15.98;92.65
20111;BME280;10216;42.658;23.248;2022-09-09T01:57:21;93956.25;;;15.96;93.03
20111;BME280;10216;42.658;23.248;2022-09-09T02:00:09;93949.47;;;15.95;92.94
20111;BME280;10216;42.658;23.248;2022-09-09T02:03:08;93949.81;;;15.92;92.95
20111;BME280;10216;42.658;23.248;2022-09-09T02:05:40;93940.47;;;15.91;93.35
20111;BME280;10216;42.658;23.248;2022-09-09T02:08:13;93939.06;;;15.89;93.15
20111;BME280;10216;42.658;23.248;2022-09-09T02:10:49;93941.47;;;15.90;92.67
20111;BME280;10216;42.658;23.248;2022-09-09T02:13:20;93936.28;;;15.90;92.84
20111;BME280;10216;42.658;23.248;2022-09-09T02:18:32;93929.88;;;15.86;93.35
20111;BME280;10216;42.658;23.248;2022-09-09T02:21:00;93921.31;;;15.86;92.87
20111;BME280;10216;42.658;23.248;2022-09-09T02:23:28;93927.47;;;15.85;92.95
20111;BME280;10216;42.658;23.248;2022-09-09T02:25:55;93934.66;;;15.83;92.89
20111;BME280;10216;42.658;23.248;2022-09-09T02:28:25;93934.03;;;15.81;92.62
20111;BME280;10216;42.658;23.248;2022-09-09T02:30:53;93937.41;;;15.81;92.52
20111;BME280;10216;42.658;23.248;2022-09-09T02:33:22;93939.41;;;15.79;92.97
20111;BME280;10216;42.658;23.248;2022-09-09T02:35:50;93937.56;;;15.73;93.10
20111;BME280;10216;42.658;23.248;2022-09-09T02:38:16;93943.72;;;15.72;93.46
20111;BME280;10216;42.658;23.248;2022-09-09T02:40:42;93949.31;;;15.69;93.92
20111;BME280;10216;42.658;23.248;2022-09-09T02:43:08;93947.50;;;15.70;94.10
20111;BME280;10216;42.658;23.248;2022-09-09T02:45:43;93958.06;;;15.68;93.76
20111;BME280;10216;42.658;23.248;2022-09-09T02:51:25;93948.50;;;15.69;94.37
20111;BME280;10216;42.658;23.248;2022-09-09T02:56:25;93947.25;;;15.65;94.06
20111;BME280;10216;42.658;23.248;2022-09-09T02:58:53;93949.25;;;15.63;94.64
20111;BME280;10216;42.658;23.248;2022-09-09T03:01:19;93941.84;;;15.59;94.67
20111;BME280;10216;42.658;23.248;2022-09-09T03:03:45;93943.66;;;15.59;95.22
20111;BME280;10216;42.658;23.248;2022-09-09T03:06:11;93945.25;;;15.60;95.30
20111;BME280;10216;42.658;23.248;2022-09-09T03:08:38;93943.22;;;15.55;95.78
20111;BME280;10216;42.658;23.248;2022-09-09T03:11:03;93944.72;;;15.50;96.25
20111;BME280;10216;42.658;23.248;2022-09-09T03:13:29;93942.22;;;15.56;96.08
20111;BME280;10216;42.658;23.248;2022-09-09T03:15:55;93939.63;;;15.56;95.82
20111;BME280;10216;42.658;23.248;2022-09-09T03:18:20;93941.22;;;15.57;95.89
20111;BME280;10216;42.658;23.248;2022-09-09T03:20:46;93948.81;;;15.59;95.86
20111;BME280;10216;42.658;23.248;2022-09-09T03:23:14;93950.06;;;15.63;95.83
20111;BME280;10216;42.658;23.248;2022-09-09T03:25:39;93941.69;;;15.61;95.94
20111;BME280;10216;42.658;23.248;2022-09-09T03:28:11;93939.44;;;15.58;96.04
20111;BME280;10216;42.658;23.248;2022-09-09T03:30:36;93942.84;;;15.58;95.64
20111;BME280;10216;42.658;23.248;2022-09-09T03:33:02;93937.25;;;15.55;96.06
20111;BME280;10216;42.658;23.248;2022-09-09T03:35:29;93939.84;;;15.55;95.55
20111;BME280;10216;42.658;23.248;2022-09-09T03:37:54;93939.44;;;15.58;95.57
20111;BME280;10216;42.658;23.248;2022-09-09T03:40:21;93939.63;;;15.56;95.59
20111;BME280;10216;42.658;23.248;2022-09-09T03:42:47;93935.06;;;15.58;95.72
20111;BME280;10216;42.658;23.248;2022-09-09T03:45:13;93942.84;;;15.58;95.05
20111;BME280;10216;42.658;23.248;2022-09-09T03:47:41;93938.47;;;15.59;95.48
20111;BME280;10216;42.658;23.248;2022-09-09T03:50:07;93938.06;;;15.55;95.96
20111;BME280;10216;42.658;23.248;2022-09-09T03:52:39;93949.41;;;15.54;96.35
20111;BME280;10216;42.658;23.248;2022-09-09T03:55:06;93948.59;;;15.54;97.05
20111;BME280;10216;42.658;23.248;2022-09-09T03:57:31;93945.03;;;15.55;96.49
20111;BME280;10216;42.658;23.248;2022-09-09T03:59:59;93943.66;;;15.59;96.66
20111;BME280;10216;42.658;23.248;2022-09-09T04:02:26;93946.84;;;15.61;96.33
20111;BME280;10216;42.658;23.248;2022-09-09T04:04:51;93954.03;;;15.66;95.77
20111;BME280;10216;42.658;23.248;2022-09-09T04:07:17;93949.09;;;15.71;95.47
20111;BME280;10216;42.658;23.248;2022-09-09T04:09:42;93949.31;;;15.69;95.68
20111;BME280;10216;42.658;23.248;2022-09-09T04:12:08;93949.66;;;15.66;96.56
20111;BME280;10216;42.658;23.248;2022-09-09T04:14:36;93957.06;;;15.69;96.71
20111;BME280;10216;42.658;23.248;2022-09-09T04:17:01;93953.84;;;15.67;96.05
20111;BME280;10216;42.658;23.248;2022-09-09T04:19:31;93946.91;;;15.68;95.87
20111;BME280;10216;42.658;23.248;2022-09-09T04:21:56;93949.09;;;15.71;96.03
20111;BME280;10216;42.658;23.248;2022-09-09T04:24:22;93948.91;;;15.72;95.40
20111;BME280;10216;42.658;23.248;2022-09-09T04:26:48;93941.94;;;15.73;95.78
20111;BME280;10216;42.658;23.248;2022-09-09T04:29:14;93949.88;;;15.71;96.63
20111;BME280;10216;42.658;23.248;2022-09-09T04:31:39;93956.50;;;15.74;96.54
20111;BME280;10216;42.658;23.248;2022-09-09T04:34:08;93962.09;;;15.77;96.55
20111;BME280;10216;42.658;23.248;2022-09-09T04:36:33;93960.50;;;15.76;96.22
20111;BME280;10216;42.658;23.248;2022-09-09T04:38:59;93963.69;;;15.78;96.57
20111;BME280;10216;42.658;23.248;2022-09-09T04:41:26;93971.47;;;15.85;96.54
20111;BME280;10216;42.658;23.248;2022-09-09T04:43:52;93965.56;;;15.91;96.54
20111;BME280;10216;42.658;23.248;2022-09-09T04:46:19;93968.38;;;15.96;96.17
20111;BME280;10216;42.658;23.248;2022-09-09T04:48:44;93956.47;;;16.01;95.34
20111;BME280;10216;42.658;23.248;2022-09-09T04:51:12;93943.53;;;16.08;95.64
20111;BME280;10216;42.658;23.248;2022-09-09T04:53:38;93947.16;;;16.14;95.24
20111;BME280;10216;42.658;23.248;2022-09-09T04:56:17;93941.00;;;16.21;95.87
20111;BME280;10216;42.658;23.248;2022-09-09T04:58:43;93947.25;;;16.27;95.46
20111;BME280;10216;42.658;23.248;2022-09-09T05:01:11;93943.66;;;16.28;95.75
20111;BME280;10216;42.658;23.248;2022-09-09T05:03:37;93934.91;;;16.35;94.78
20111;BME280;10216;42.658;23.248;2022-09-09T05:06:07;93929.97;;;16.40;94.37
20111;BME280;10216;42.658;23.248;2022-09-09T05:08:37;93926.97;;;16.50;94.52
20111;BME280;10216;42.658;23.248;2022-09-09T05:11:14;93931.41;;;16.56;93.77
20111;BME280;10216;42.658;23.248;2022-09-09T05:13:39;93933.44;;;16.61;93.41
20111;BME280;10216;42.658;23.248;2022-09-09T05:16:05;93939.81;;;16.65;93.30
20111;BME280;10216;42.658;23.248;2022-09-09T05:18:30;93942.44;;;16.71;92.51
20111;BME280;10216;42.658;23.248;2022-09-09T05:20:59;93919.91;;;16.78;92.39
20111;BME280;10216;42.658;23.248;2022-09-09T05:23:25;93915.56;;;16.86;92.21
20111;BME280;10216;42.658;23.248;2022-09-09T05:25:57;93920.53;;;16.94;91.88
20111;BME280;10216;42.658;23.248;2022-09-09T05:28:24;93928.94;;;17.02;91.07
20111;BME280;10216;42.658;23.248;2022-09-09T05:30:58;93932.31;;;17.03;89.67
20111;BME280;10216;42.658;23.248;2022-09-09T05:33:24;93930.34;;;17.18;89.45
20111;BME280;10216;42.658;23.248;2022-09-09T05:36:00;93931.34;;;17.30;88.69
20111;BME280;10216;42.658;23.248;2022-09-09T05:38:27;93934.34;;;17.40;88.31
20111;BME280;10216;42.658;23.248;2022-09-09T05:40:53;93937.16;;;17.45;88.04
20111;BME280;10216;42.658;23.248;2022-09-09T05:43:19;93939.34;;;17.48;86.11
20111;BME280;10216;42.658;23.248;2022-09-09T05:45:46;93942.31;;;17.58;85.45
20111;BME280;10216;42.658;23.248;2022-09-09T05:48:13;93947.97;;;17.62;84.08
20111;BME280;10216;42.658;23.248;2022-09-09T05:50:38;93949.75;;;17.75;83.95
20111;BME280;10216;42.658;23.248;2022-09-09T05:53:04;93946.34;;;17.81;83.07
20111;BME280;10216;42.658;23.248;2022-09-09T05:55:29;93939.94;;;17.83;82.88
20111;BME280;10216;42.658;23.248;2022-09-09T05:57:54;93940.13;;;17.95;82.67
20111;BME280;10216;42.658;23.248;2022-09-09T06:00:20;93943.91;;;18.06;82.22
20111;BME280;10216;42.658;23.248;2022-09-09T06:02:51;93959.84;;;18.16;81.57
20111;BME280;10216;42.658;23.248;2022-09-09T06:05:17;93960.63;;;18.23;81.55
20111;BME280;10216;42.658;23.248;2022-09-09T06:07:43;93964.63;;;18.25;80.07
20111;BME280;10216;42.658;23.248;2022-09-09T06:10:10;93964.59;;;18.39;79.72
20111;BME280;10216;42.658;23.248;2022-09-09T06:12:35;93970.78;;;18.51;79.77
20111;BME280;10216;42.658;23.248;2022-09-09T06:15:01;93962.75;;;18.52;78.51
20111;BME280;10216;42.658;23.248;2022-09-09T06:17:27;93965.56;;;18.51;78.30
20111;BME280;10216;42.658;23.248;2022-09-09T06:19:52;93961.19;;;18.58;78.52
20111;BME280;10216;42.658;23.248;2022-09-09T06:22:18;93963.50;;;18.66;78.26
20111;BME280;10216;42.658;23.248;2022-09-09T06:24:44;93956.50;;;18.66;78.35
20111;BME280;10216;42.658;23.248;2022-09-09T06:27:10;93962.50;;;18.67;77.10
20111;BME280;10216;42.658;23.248;2022-09-09T06:29:36;93968.84;;;18.84;77.62
20111;BME280;10216;42.658;23.248;2022-09-09T06:32:02;93962.53;;;19.05;76.50
20111;BME280;10216;42.658;23.248;2022-09-09T06:34:28;93953.84;;;19.18;76.02
20111;BME280;10216;42.658;23.248;2022-09-09T06:36:54;93951.72;;;19.33;75.68
20111;BME280;10216;42.658;23.248;2022-09-09T06:39:22;93949.09;;;19.39;75.72
20111;BME280;10216;42.658;23.248;2022-09-09T06:41:48;93955.81;;;19.54;75.40
20111;BME280;10216;42.658;23.248;2022-09-09T06:44:14;93950.94;;;19.64;75.53
20111;BME280;10216;42.658;23.248;2022-09-09T06:46:40;93960.97;;;19.85;75.21
20111;BME280;10216;42.658;23.248;2022-09-09T06:49:07;93960.69;;;19.93;74.31
20111;BME280;10216;42.658;23.248;2022-09-09T06:51:35;93970.41;;;20.04;73.90
20111;BME280;10216;42.658;23.248;2022-09-09T06:54:03;93969.34;;;20.12;73.67
20111;BME280;10216;42.658;23.248;2022-09-09T06:58:57;93966.75;;;20.30;72.34
20111;BME280;10216;42.658;23.248;2022-09-09T07:01:30;93973.25;;;20.46;72.00
20111;BME280;10216;42.658;23.248;2022-09-09T07:03:57;93971.63;;;20.63;70.87
20111;BME280;10216;42.658;23.248;2022-09-09T07:06:29;93973.84;;;20.78;70.69
20111;BME280;10216;42.658;23.248;2022-09-09T07:09:00;93980.50;;;20.92;70.14
20111;BME280;10216;42.658;23.248;2022-09-09T07:11:28;93966.31;;;20.88;67.99
20111;BME280;10216;42.658;23.248;2022-09-09T07:13:54;93962.59;;;20.95;68.48
20111;BME280;10216;42.658;23.248;2022-09-09T07:16:21;93964.34;;;21.13;68.79
20111;BME280;10216;42.658;23.248;2022-09-09T07:18:50;93970.19;;;20.97;67.99
20111;BME280;10216;42.658;23.248;2022-09-09T07:21:16;93968.88;;;21.24;68.45
20111;BME280;10216;42.658;23.248;2022-09-09T07:23:42;93959.50;;;21.47;68.25
20111;BME280;10216;42.658;23.248;2022-09-09T07:26:18;93960.63;;;21.62;67.15
20111;BME280;10216;42.658;23.248;2022-09-09T07:28:44;93958.38;;;21.77;65.65
20111;BME280;10216;42.658;23.248;2022-09-09T07:31:14;93950.59;;;22.01;65.74
20111;BME280;10216;42.658;23.248;2022-09-09T07:33:41;93949.56;;;22.13;65.86
20111;BME280;10216;42.658;23.248;2022-09-09T07:36:13;93953.66;;;22.33;64.51
20111;BME280;10216;42.658;23.248;2022-09-09T07:38:44;93959.97;;;22.60;64.66
20111;BME280;10216;42.658;23.248;2022-09-09T07:41:19;93960.16;;;22.82;63.79
20111;BME280;10216;42.658;23.248;2022-09-09T07:43:48;93972.13;;;23.06;63.43
20111;BME280;10216;42.658;23.248;2022-09-09T07:46:15;93965.50;;;23.15;60.73
20111;BME280;10216;42.658;23.248;2022-09-09T07:48:52;93972.53;;;23.43;61.39
20111;BME280;10216;42.658;23.248;2022-09-09T07:51:22;93973.22;;;24.00;60.70
20111;BME280;10216;42.658;23.248;2022-09-09T07:53:52;93970.28;;;24.30;58.53
20111;BME280;10216;42.658;23.248;2022-09-09T07:56:20;93973.16;;;24.50;57.08
20111;BME280;10216;42.658;23.248;2022-09-09T07:58:50;93973.84;;;24.63;55.70
20111;BME280;10216;42.658;23.248;2022-09-09T08:01:18;93962.41;;;24.52;54.70
20111;BME280;10216;42.658;23.248;2022-09-09T08:03:45;93973.31;;;24.82;55.13
20111;BME280;10216;42.658;23.248;2022-09-09T08:06:12;93971.44;;;25.00;54.48
20111;BME280;10216;42.658;23.248;2022-09-09T08:08:38;93975.41;;;25.02;54.19
20111;BME280;10216;42.658;23.248;2022-09-09T08:11:09;93972.78;;;25.29;54.50
20111;BME280;10216;42.658;23.248;2022-09-09T08:13:36;93971.06;;;25.40;53.02
20111;BME280;10216;42.658;23.248;2022-09-09T08:16:13;93970.53;;;25.64;52.28
20111;BME280;10216;42.658;23.248;2022-09-09T08:18:39;93966.25;;;25.90;51.91
20111;BME280;10216;42.658;23.248;2022-09-09T08:21:09;93972.28;;;25.86;51.74
20111;BME280;10216;42.658;23.248;2022-09-09T08:23:37;93968.00;;;26.12;51.30
20111;BME280;10216;42.658;23.248;2022-09-09T08:26:16;93975.53;;;26.35;50.55
20111;BME280;10216;42.658;23.248;2022-09-09T08:28:42;93963.13;;;26.30;50.34
20111;BME280;10216;42.658;23.248;2022-09-09T08:31:16;93960.81;;;26.39;53.58
20111;BME280;10216;42.658;23.248;2022-09-09T08:33:43;93962.22;;;26.57;51.47
20111;BME280;10216;42.658;23.248;2022-09-09T08:36:19;93965.19;;;26.70;50.92
20111;BME280;10216;42.658;23.248;2022-09-09T08:38:50;93967.03;;;26.70;50.98
20111;BME280;10216;42.658;23.248;2022-09-09T08:52:00;93961.28;;;27.91;47.44
20111;BME280;10216;42.658;23.248;2022-09-09T08:54:30;93962.88;;;27.92;47.57
20111;BME280;10216;42.658;23.248;2022-09-09T08:56:58;93961.28;;;27.66;46.27
20111;BME280;10216;42.658;23.248;2022-09-09T08:59:23;93949.91;;;27.60;48.03
20111;BME280;10216;42.658;23.248;2022-09-09T09:02:12;93954.41;;;28.00;47.19
20111;BME280;10216;42.658;23.248;2022-09-09T09:10:12;93964.59;;;29.76;41.82
20111;BME280;10216;42.658;23.248;2022-09-09T09:12:44;93960.16;;;30.05;43.07
20111;BME280;10216;42.658;23.248;2022-09-09T09:15:31;93960.06;;;29.42;43.47
20111;BME280;10216;42.658;23.248;2022-09-09T09:18:04;93953.50;;;29.35;43.91
20111;BME280;10216;42.658;23.248;2022-09-09T09:20:45;93951.44;;;29.66;43.40
20111;BME280;10216;42.658;23.248;2022-09-09T09:23:21;93950.28;;;29.82;43.31
20111;BME280;10216;42.658;23.248;2022-09-09T09:25:47;93949.13;;;29.59;43.50
20111;BME280;10216;42.658;23.248;2022-09-09T09:28:24;93960.28;;;29.85;42.75
20111;BME280;10216;42.658;23.248;2022-09-09T09:30:57;93957.50;;;31.11;42.13
20111;BME280;10216;42.658;23.248;2022-09-09T09:33:49;93958.75;;;31.74;40.25
20111;BME280;10216;42.658;23.248;2022-09-09T09:36:15;93957.00;;;31.27;40.56
20111;BME280;10216;42.658;23.248;2022-09-09T09:38:58;93944.94;;;31.16;41.00
20111;BME280;10216;42.658;23.248;2022-09-09T09:41:41;93939.63;;;30.74;41.07
20111;BME280;10216;42.658;23.248;2022-09-09T09:44:30;93938.78;;;30.49;41.93
20111;BME280;10216;42.658;23.248;2022-09-09T09:47:28;93933.72;;;30.29;43.16
20111;BME280;10216;42.658;23.248;2022-09-09T09:49:59;93937.56;;;30.13;42.77
20111;BME280;10216;42.658;23.248;2022-09-09T09:52:29;93932.78;;;30.15;43.28
20111;BME280;10216;42.658;23.248;2022-09-09T09:54:56;93932.59;;;30.35;42.83
20111;BME280;10216;42.658;23.248;2022-09-09T09:57:26;93941.25;;;30.17;44.03
20111;BME280;10216;42.658;23.248;2022-09-09T10:00:15;93923.50;;;29.83;44.73
20111;BME280;10216;42.658;23.248;2022-09-09T10:02:43;93925.44;;;29.34;44.83
20111;BME280;10216;42.658;23.248;2022-09-09T10:05:16;93935.81;;;28.66;45.12
20111;BME280;10216;42.658;23.248;2022-09-09T10:07:42;93936.97;;;28.24;46.01
20111;BME280;10216;42.658;23.248;2022-09-09T10:10:15;93934.88;;;27.55;46.22
20111;BME280;10216;42.658;23.248;2022-09-09T10:12:49;93940.88;;;27.20;46.87
20111;BME280;10216;42.658;23.248;2022-09-09T10:15:35;93939.00;;;27.16;48.17
20111;BME280;10216;42.658;23.248;2022-09-09T10:29:37;93934.88;;;26.73;49.84
20111;BME280;10216;42.658;23.248;2022-09-09T10:32:33;93940.94;;;26.63;50.89
20111;BME280;10216;42.658;23.248;2022-09-09T10:35:12;93940.63;;;26.55;51.64
20111;BME280;10216;42.658;23.248;2022-09-09T10:40:26;93957.75;;;26.57;51.95
20111;BME280;10216;42.658;23.248;2022-09-09T10:43:00;93952.19;;;26.54;52.36
20111;BME280;10216;42.658;23.248;2022-09-09T10:45:45;93954.09;;;26.58;50.94
20111;BME280;10216;42.658;23.248;2022-09-09T10:48:33;93948.09;;;26.83;51.22
20111;BME280;10216;42.658;23.248;2022-09-09T10:51:17;93941.56;;;26.91;51.51
20111;BME280;10216;42.658;23.248;2022-09-09T10:56:26;93945.88;;;26.55;52.05
20111;BME280;10216;42.658;23.248;2022-09-09T11:01:26;93942.84;;;26.31;52.51
20111;BME280;10216;42.658;23.248;2022-09-09T11:03:59;93946.84;;;26.38;53.65
20111;BME280;10216;42.658;23.248;2022-09-09T11:06:38;93946.59;;;26.40;53.14
20111;BME280;10216;42.658;23.248;2022-09-09T11:09:08;93942.47;;;26.54;53.25
20111;BME280;10216;42.658;23.248;2022-09-09T11:11:42;93938.84;;;26.70;53.35
20111;BME280;10216;42.658;23.248;2022-09-09T11:14:21;93936.06;;;26.97;52.19
20111;BME280;10216;42.658;23.248;2022-09-09T11:16:58;93941.19;;;27.44;51.85
20111;BME280;10216;42.658;23.248;2022-09-09T11:19:40;93928.00;;;27.75;50.02
20111;BME280;10216;42.658;23.248;2022-09-09T11:24:56;93924.63;;;28.94;47.41
20111;BME280;10216;42.658;23.248;2022-09-09T11:28:11;93923.94;;;29.23;47.68
20111;BME280;10216;42.658;23.248;2022-09-09T11:38:44;93894.66;;;29.53;46.49
20111;BME280;10216;42.658;23.248;2022-09-09T11:41:12;93888.00;;;29.17;47.88
20111;BME280;10216;42.658;23.248;2022-09-09T11:43:46;93878.69;;;28.80;47.51
20111;BME280;10216;42.658;23.248;2022-09-09T11:46:18;93849.03;;;28.24;49.52
20111;BME280;10216;42.658;23.248;2022-09-09T11:48:57;93845.81;;;28.32;49.91
20111;BME280;10216;42.658;23.248;2022-09-09T11:54:00;93863.47;;;29.45;48.48
20111;BME280;10216;42.658;23.248;2022-09-09T11:59:05;93864.72;;;32.22;43.03
20111;BME280;10216;42.658;23.248;2022-09-09T12:01:36;93872.13;;;33.96;40.29
20111;BME280;10216;42.658;23.248;2022-09-09T12:04:21;93877.78;;;35.56;38.90
20111;BME280;10216;42.658;23.248;2022-09-09T12:06:54;93864.63;;;36.15;37.25
20111;BME280;10216;42.658;23.248;2022-09-09T12:12:06;93866.91;;;37.30;34.97
20111;BME280;10216;42.658;23.248;2022-09-09T12:17:22;93852.91;;;36.74;33.34
20111;BME280;10216;42.658;23.248;2022-09-09T12:20:02;93852.56;;;36.85;33.47
20111;BME280;10216;42.658;23.248;2022-09-09T12:23:03;93858.75;;;36.97;32.84
20111;BME280;10216;42.658;23.248;2022-09-09T12:34:26;93830.75;;;34.77;35.52
20111;BME280;10216;42.658;23.248;2022-09-09T12:36:59;93831.09;;;33.30;37.26
20111;BME280;10216;42.658;23.248;2022-09-09T12:39:56;93823.09;;;31.71;40.55
20111;BME280;10216;42.658;23.248;2022-09-09T12:42:23;93819.53;;;31.11;41.57
20111;BME280;10216;42.658;23.248;2022-09-09T12:45:18;93822.50;;;30.67;41.23
20111;BME280;10216;42.658;23.248;2022-09-09T12:50:22;93812.50;;;29.63;44.18
20111;BME280;10216;42.658;23.248;2022-09-09T12:52:52;93805.28;;;29.06;43.89
20111;BME280;10216;42.658;23.248;2022-09-09T12:55:21;93804.56;;;30.40;43.18
20111;BME280;10216;42.658;23.248;2022-09-09T12:57:50;93804.44;;;30.50;42.83
20111;BME280;10216;42.658;23.248;2022-09-09T13:00:19;93791.63;;;30.76;42.04
20111;BME280;10216;42.658;23.248;2022-09-09T13:02:54;93789.38;;;31.01;42.21
20111;BME280;10216;42.658;23.248;2022-09-09T13:07:50;93788.13;;;30.38;43.06
20111;BME280;10216;42.658;23.248;2022-09-09T13:10:24;93781.28;;;30.93;43.00
20111;BME280;10216;42.658;23.248;2022-09-09T13:12:52;93786.09;;;31.61;41.26
20111;BME280;10216;42.658;23.248;2022-09-09T13:15:23;93781.50;;;32.48;40.36
20111;BME280;10216;42.658;23.248;2022-09-09T13:18:01;93784.56;;;32.69;40.58
20111;BME280;10216;42.658;23.248;2022-09-09T13:20:28;93786.25;;;32.38;41.68
20111;BME280;10216;42.658;23.248;2022-09-09T13:22:54;93775.91;;;33.22;40.11
20111;BME280;10216;42.658;23.248;2022-09-09T13:25:24;93777.25;;;33.33;39.07
20111;BME280;10216;42.658;23.248;2022-09-09T13:27:59;93776.25;;;32.57;39.90
20111;BME280;10216;42.658;23.248;2022-09-09T13:30:29;93762.31;;;31.83;40.25
20111;BME280;10216;42.658;23.248;2022-09-09T13:35:58;93765.63;;;30.16;42.68
20111;BME280;10216;42.658;23.248;2022-09-09T13:38:25;93756.81;;;29.73;44.45
20111;BME280;10216;42.658;23.248;2022-09-09T13:40:58;93757.78;;;29.25;45.11
20111;BME280;10216;42.658;23.248;2022-09-09T13:43:28;93741.22;;;29.14;45.15
20111;BME280;10216;42.658;23.248;2022-09-09T13:48:21;93754.38;;;29.77;44.60
20111;BME280;10216;42.658;23.248;2022-09-09T13:50:58;93747.16;;;29.59;45.48
20111;BME280;10216;42.658;23.248;2022-09-09T13:53:24;93738.66;;;29.62;44.92
20111;BME280;10216;42.658;23.248;2022-09-09T13:55:50;93746.13;;;29.55;45.32
20111;BME280;10216;42.658;23.248;2022-09-09T13:58:17;93725.88;;;29.69;44.60
20111;BME280;10216;42.658;23.248;2022-09-09T14:00:44;93735.78;;;29.58;45.66
20111;BME280;10216;42.658;23.248;2022-09-09T14:03:10;93752.97;;;29.32;45.54
20111;BME280;10216;42.658;23.248;2022-09-09T14:05:35;93745.97;;;29.46;46.74
20111;BME280;10216;42.658;23.248;2022-09-09T14:08:03;93751.59;;;29.63;45.77
20111;BME280;10216;42.658;23.248;2022-09-09T14:10:31;93729.97;;;29.56;45.77
20111;BME280;10216;42.658;23.248;2022-09-09T14:12:57;93739.94;;;29.40;45.56
20111;BME280;10216;42.658;23.248;2022-09-09T14:15:22;93735.31;;;28.93;46.12
20111;BME280;10216;42.658;23.248;2022-09-09T14:17:49;93745.41;;;28.42;47.41
20111;BME280;10216;42.658;23.248;2022-09-09T14:20:14;93741.03;;;28.12;47.98
20111;BME280;10216;42.658;23.248;2022-09-09T14:22:42;93739.53;;;27.91;48.71
20111;BME280;10216;42.658;23.248;2022-09-09T14:25:08;93736.41;;;27.79;48.72
20111;BME280;10216;42.658;23.248;2022-09-09T14:27:34;93742.00;;;27.72;48.37
20111;BME280;10216;42.658;23.248;2022-09-09T14:30:00;93735.81;;;28.02;48.57
20111;BME280;10216;42.658;23.248;2022-09-09T14:32:26;93728.38;;;28.09;48.75
20111;BME280;10216;42.658;23.248;2022-09-09T14:34:52;93731.56;;;28.16;46.71
20111;BME280;10216;42.658;23.248;2022-09-09T14:37:18;93729.41;;;28.13;47.92
20111;BME280;10216;42.658;23.248;2022-09-09T14:39:44;93727.25;;;28.25;48.26
20111;BME280;10216;42.658;23.248;2022-09-09T14:42:13;93728.22;;;28.40;47.41
20111;BME280;10216;42.658;23.248;2022-09-09T14:44:39;93728.19;;;28.50;46.37
20111;BME280;10216;42.658;23.248;2022-09-09T14:47:05;93727.34;;;28.54;48.48
20111;BME280;10216;42.658;23.248;2022-09-09T14:49:30;93716.03;;;28.49;48.37
20111;BME280;10216;42.658;23.248;2022-09-09T14:51:56;93723.06;;;28.19;47.28
20111;BME280;10216;42.658;23.248;2022-09-09T14:54:22;93726.75;;;28.23;48.28
20111;BME280;10216;42.658;23.248;2022-09-09T14:56:48;93731.25;;;28.13;47.74
20111;BME280;10216;42.658;23.248;2022-09-09T14:59:13;93736.34;;;27.99;47.76
20111;BME280;10216;42.658;23.248;2022-09-09T15:01:39;93738.78;;;27.80;49.22